Time;durP1;ratioP1;P1;durP2;ratioP2;P2;SDS_P1;SDS_P2;PMS_P1;PMS_P2;Temp;Humidity;BMP_temperature;BMP_pressure;BME280_temperature;BME280_humidity;BME280_pressure;Samples;Min_cycle;Max_cycle;Signal;HPM_P1;HPM_P2
2023/01/27 00:02:08;;;;;;;10.65;1.30;;;;;;;4.20;100.00;102300.78;5036161;28;20381;-88
2023/01/27 00:14:14;;;;;;;13.48;1.45;;;;;;;4.13;100.00;102291.56;5036571;28;20512;-88
2023/01/27 00:16:43;;;;;;;8.38;1.65;;;;;;;4.10;100.00;102292.69;5019140;28;20026;-89
2023/01/27 00:19:08;;;;;;;16.00;2.05;;;;;;;4.09;100.00;102300.88;5018827;28;20033;-88
2023/01/27 00:24:45;;;;;;;7.47;1.30;;;;;;;4.08;100.00;102300.03;5036381;28;20064;-88
2023/01/27 00:27:13;;;;;;;7.78;1.27;;;;;;;4.04;100.00;102288.72;5018160;28;20513;-88
2023/01/27 00:29:39;;;;;;;9.82;1.50;;;;;;;4.07;100.00;102297.50;5036116;28;20034;-88
2023/01/27 00:34:54;;;;;;;13.57;1.30;;;;;;;4.06;100.00;102298.47;5036063;28;20114;-88
2023/01/27 00:37:19;;;;;;;7.93;1.43;;;;;;;4.01;100.00;102296.19;5018878;28;20037;-88
2023/01/27 00:39:45;;;;;;;10.40;1.20;;;;;;;4.00;100.00;102289.13;5017923;28;20501;-88
2023/01/27 00:42:16;;;;;;;8.13;1.20;;;;;;;4.01;100.00;102294.34;5017988;28;20033;-88
2023/01/27 00:45:47;;;;;;;9.88;1.30;;;;;;;3.99;100.00;102299.03;5018635;28;20040;-88
2023/01/27 00:47:32;;;;;;;8.77;1.23;;;;;;;3.94;100.00;102295.91;5035810;28;20390;-88
2023/01/27 00:49:59;;;;;;;10.77;1.30;;;;;;;3.94;100.00;102292.34;5017895;28;20130;-89
2023/01/27 00:52:29;;;;;;;16.05;2.15;;;;;;;3.96;100.00;102301.16;5018200;28;20037;-88
2023/01/27 00:54:55;;;;;;;8.55;1.40;;;;;;;3.90;100.00;102291.78;5018139;28;20041;-88
2023/01/27 00:57:21;;;;;;;12.00;1.50;;;;;;;3.92;100.00;102303.22;5017660;28;20091;-88
2023/01/27 00:59:46;;;;;;;11.93;1.50;;;;;;;3.91;100.00;102300.69;5035775;28;20429;-88
2023/01/27 01:02:14;;;;;;;15.27;1.60;;;;;;;3.87;100.00;102308.19;5034508;28;20060;-88
2023/01/27 01:04:40;;;;;;;11.55;1.77;;;;;;;3.85;100.00;102296.69;5035393;28;20092;-89
2023/01/27 01:07:08;;;;;;;7.53;1.40;;;;;;;3.85;100.00;102302.06;5017780;28;20029;-88
2023/01/27 01:09:35;;;;;;;8.27;1.40;;;;;;;3.79;100.00;102300.78;5018357;28;20033;-88
2023/01/27 01:12:01;;;;;;;11.93;1.60;;;;;;;3.81;100.00;102298.81;5017404;28;20029;-88
2023/01/27 01:14:31;;;;;;;13.73;2.03;;;;;;;3.77;100.00;102296.53;5017301;28;20033;-89
2023/01/27 01:17:04;;;;;;;13.60;1.58;;;;;;;3.77;100.00;102299.22;5033967;28;20125;-88
2023/01/27 01:19:32;;;;;;;14.32;1.80;;;;;;;3.78;100.00;102311.66;5018384;28;20124;-88
2023/01/27 01:22:12;;;;;;;9.60;1.42;;;;;;;3.74;100.00;102308.41;5034890;28;20025;-88
2023/01/27 01:24:43;;;;;;;12.93;1.55;;;;;;;3.75;100.00;102317.28;5035340;28;20099;-88
2023/01/27 01:27:09;;;;;;;9.52;1.77;;;;;;;3.73;100.00;102313.91;5001950;28;20119;-88
2023/01/27 01:29:39;;;;;;;13.98;2.55;;;;;;;3.72;100.00;102315.75;5016675;28;20033;-88
2023/01/27 01:32:10;;;;;;;8.50;2.10;;;;;;;3.68;100.00;102314.31;5017431;28;20029;-88
2023/01/27 01:34:37;;;;;;;8.80;1.90;;;;;;;3.67;100.00;102312.59;5035269;28;20029;-88
2023/01/27 01:37:14;;;;;;;14.90;2.10;;;;;;;3.68;100.00;102317.84;5016884;28;20036;-88
2023/01/27 01:39:40;;;;;;;9.35;1.98;;;;;;;3.68;100.00;102317.84;5017891;28;20036;-89
2023/01/27 01:42:05;;;;;;;9.47;1.83;;;;;;;3.71;100.00;102324.78;5017194;28;20026;-89
2023/01/27 01:44:35;;;;;;;9.93;2.07;;;;;;;3.66;100.00;102327.00;5020014;28;20051;-89
2023/01/27 01:47:03;;;;;;;9.30;2.22;;;;;;;3.68;100.00;102323.19;5020162;28;20083;-89
2023/01/27 01:49:37;;;;;;;9.50;1.98;;;;;;;3.66;100.00;102321.63;5037735;28;20064;-89
2023/01/27 01:54:55;;;;;;;18.42;2.33;;;;;;;3.66;100.00;102316.25;5034848;28;20039;-89
2023/01/27 02:00:43;;;;;;;9.60;2.70;;;;;;;3.66;100.00;102327.00;5034596;28;20036;-88
2023/01/27 02:03:12;;;;;;;18.25;2.10;;;;;;;3.63;100.00;102330.81;5000233;28;20520;-89
2023/01/27 02:05:42;;;;;;;11.32;2.50;;;;;;;3.63;100.00;102325.44;5001139;28;20033;-89
2023/01/27 02:08:32;;;;;;;9.43;2.15;;;;;;;3.63;100.00;102320.09;5033982;28;20045;-89
2023/01/27 02:14:43;;;;;;;14.48;2.25;;;;;;;3.63;100.00;102324.56;4955201;28;20059;-89
2023/01/27 02:20:55;;;;;;;11.73;2.67;;;;;;;3.62;100.00;102320.22;4996231;28;20532;-88
2023/01/27 02:23:46;;;;;;;10.88;2.80;;;;;;;3.62;100.00;102322.91;5011696;28;20107;-89
2023/01/27 02:26:20;;;;;;;11.30;2.30;;;;;;;3.58;100.00;102322.31;5016610;28;20052;-88
2023/01/27 02:32:24;;;;;;;11.85;2.40;;;;;;;3.57;100.00;102330.47;4974490;28;20106;-88
2023/01/27 02:38:14;;;;;;;17.23;2.30;;;;;;;3.57;100.00;102341.22;5033915;28;20128;-89
2023/01/27 02:44:20;;;;;;;11.00;2.50;;;;;;;3.54;100.00;102341.50;5033970;28;20398;-89
2023/01/27 02:46:46;;;;;;;12.43;2.53;;;;;;;3.50;100.00;102341.75;5000725;28;20026;-89
2023/01/27 02:49:16;;;;;;;10.90;2.30;;;;;;;3.53;100.00;102337.97;5015080;28;20032;-89
2023/01/27 02:51:42;;;;;;;12.45;2.67;;;;;;;3.51;100.00;102343.47;5033783;28;20040;-89
2023/01/27 02:54:09;;;;;;;10.13;2.37;;;;;;;3.51;100.00;102339.91;5016001;28;20473;-89
2023/01/27 02:56:40;;;;;;;5.65;2.90;;;;;;;3.51;100.00;102339.91;5002280;28;20061;-89
2023/01/27 02:59:06;;;;;;;6.15;2.60;;;;;;;3.51;100.00;102338.09;5022475;28;20026;-88
2023/01/27 03:01:33;;;;;;;9.63;2.57;;;;;;;3.48;100.00;102337.50;5022190;28;20079;-89
2023/01/27 03:03:59;;;;;;;11.98;2.88;;;;;;;3.48;100.00;102327.63;5023272;28;20018;-89
2023/01/27 03:06:34;;;;;;;9.80;3.10;;;;;;;3.46;100.00;102328.75;5022611;28;20036;-89
2023/01/27 03:09:31;;;;;;;;;;;;;;;;;;;;;
2023/01/27 03:20:32;;;;;;;8.82;3.30;;;;;;;3.42;100.00;102344.25;5040904;28;20488;-88
2023/01/27 03:26:45;;;;;;;9.57;3.60;;;;;;;3.41;100.00;102342.56;5039541;28;20053;-88
2023/01/27 03:31:57;;;;;;;10.20;3.72;;;;;;;3.40;100.00;102350.75;5039764;28;20125;-88
2023/01/27 03:34:29;;;;;;;11.70;3.67;;;;;;;3.42;100.00;102348.75;5040156;28;20086;-88
2023/01/27 03:47:56;;;;;;;12.52;4.28;;;;;;;3.40;100.00;102367.69;5025157;28;20106;-88
2023/01/27 03:50:36;;;;;;;16.07;4.37;;;;;;;3.40;100.00;102372.22;5039373;28;20432;-88
2023/01/27 03:53:17;;;;;;;14.35;4.15;;;;;;;3.39;100.00;102374.03;4963082;28;20423;-89
2023/01/27 03:55:46;;;;;;;12.50;4.25;;;;;;;3.39;100.00;102367.81;5039767;28;20061;-88
2023/01/27 03:58:51;;;;;;;15.20;4.78;;;;;;;3.46;100.00;102369.00;5039176;28;20037;-88
2023/01/27 04:07:35;;;;;;;14.50;4.68;;;;;;;3.37;100.00;102375.16;5023288;28;20107;-88
2023/01/27 04:10:07;;;;;;;13.75;4.80;;;;;;;3.38;100.00;102377.72;5035810;28;20433;-89
2023/01/27 04:12:45;;;;;;;;;;;;;;;;;;;;;
2023/01/27 04:15:17;;;;;;;12.85;5.30;;;;;;;3.36;100.00;102382.34;5020029;28;20033;-89
2023/01/27 04:21:12;;;;;;;13.32;5.53;;;;;;;3.39;100.00;102374.03;5036512;28;20032;-88
2023/01/27 04:23:37;;;;;;;15.88;5.18;;;;;;;3.34;100.00;102371.72;5020150;28;20030;-89
2023/01/27 04:26:06;;;;;;;19.50;5.40;;;;;;;3.33;100.00;102375.38;5017969;28;20053;-89
2023/01/27 04:28:42;;;;;;;15.23;5.68;;;;;;;3.33;100.00;102380.75;5018476;28;20037;-88
2023/01/27 04:31:14;;;;;;;17.38;5.90;;;;;;;3.32;100.00;102368.34;5003894;28;20034;-88
2023/01/27 04:33:46;;;;;;;16.63;5.53;;;;;;;3.36;100.00;102376.97;5018260;28;20030;-89
2023/01/27 04:36:20;;;;;;;15.30;5.85;;;;;;;3.33;100.00;102380.75;5018213;28;20036;-89
2023/01/27 04:38:46;;;;;;;17.25;5.57;;;;;;;3.34;100.00;102384.31;5018832;28;20045;-88
2023/01/27 04:41:11;;;;;;;18.52;6.30;;;;;;;3.34;100.00;102387.00;5018762;28;20374;-89
2023/01/27 04:43:44;;;;;;;15.53;5.90;;;;;;;3.37;100.00;102386.72;5018450;28;20480;-88
2023/01/27 04:46:10;;;;;;;22.17;6.53;;;;;;;3.35;100.00;102394.03;5001744;28;20432;-88
2023/01/27 04:48:35;;;;;;;21.57;6.03;;;;;;;3.35;100.00;102388.66;5018019;28;20044;-88
2023/01/27 04:51:06;;;;;;;15.93;6.20;;;;;;;3.33;100.00;102394.16;5035294;28;20030;-88
2023/01/27 04:53:34;;;;;;;19.50;6.55;;;;;;;3.32;100.00;102395.16;5018242;28;20116;-88
2023/01/27 04:56:08;;;;;;;16.20;6.15;;;;;;;3.28;100.00;102393.72;5001924;28;20470;-88
2023/01/27 04:58:34;;;;;;;18.40;6.57;;;;;;;3.30;100.00;102404.31;5018795;28;20377;-88
2023/01/27 05:04:26;;;;;;;16.92;7.35;;;;;;;3.28;100.00;102404.44;5035351;28;20039;-89
2023/01/27 05:10:16;;;;;;;17.83;7.15;;;;;;;3.25;100.00;102406.53;5035437;28;20447;-89
2023/01/27 05:16:14;;;;;;;15.17;6.27;;;;;;;3.27;100.00;102412.63;5035147;28;20488;-88
2023/01/27 05:18:42;;;;;;;14.27;6.60;;;;;;;3.24;100.00;102404.84;5016960;28;20027;-89
2023/01/27 05:21:14;;;;;;;15.55;7.10;;;;;;;3.25;100.00;102411.88;5001923;28;20037;-88
2023/01/27 05:23:46;;;;;;;13.98;6.45;;;;;;;3.23;100.00;102411.19;5001579;28;20075;-88
2023/01/27 05:26:20;;;;;;;15.52;6.93;;;;;;;3.25;100.00;102415.44;5017679;28;20049;-88
2023/01/27 05:28:54;;;;;;;12.37;6.40;;;;;;;3.21;100.00;102411.31;5035098;28;20112;-88
2023/01/27 05:31:23;;;;;;;16.00;6.72;;;;;;;3.23;100.00;102424.59;5017591;28;20109;-88
2023/01/27 05:34:07;;;;;;;16.23;7.22;;;;;;;3.25;100.00;102431.53;5017507;28;20056;-88
2023/01/27 05:36:32;;;;;;;16.85;7.47;;;;;;;3.23;100.00;102417.38;5017278;28;20026;-88
2023/01/27 05:39:03;;;;;;;16.27;7.17;;;;;;;3.24;100.00;102437.88;5016959;28;20028;-89
2023/01/27 05:41:49;;;;;;;17.73;7.00;;;;;;;3.27;100.00;102434.94;5017801;28;20159;-89
2023/01/27 05:44:15;;;;;;;16.15;6.78;;;;;;;3.26;100.00;102429.69;5000841;28;20033;-89
2023/01/27 05:46:50;;;;;;;16.90;7.87;;;;;;;3.25;100.00;102430.66;5016985;28;20484;-88
2023/01/27 05:49:16;;;;;;;14.10;6.78;;;;;;;3.25;100.00;102431.53;5017256;28;20045;-89
2023/01/27 05:51:44;;;;;;;12.53;6.60;;;;;;;3.27;100.00;102439.47;5017075;28;20119;-89
2023/01/27 05:54:09;;;;;;;12.85;6.28;;;;;;;3.26;100.00;102437.75;5034492;28;20025;-89
2023/01/27 05:56:39;;;;;;;12.43;6.65;;;;;;;3.25;100.00;102447.63;5016492;28;20026;-89
2023/01/27 05:59:05;;;;;;;14.07;6.70;;;;;;;3.30;100.00;102441.88;5017369;28;20037;-88
2023/01/27 06:01:33;;;;;;;14.30;7.15;;;;;;;3.29;100.00;102440.16;5017026;28;20539;-89
2023/01/27 06:04:01;;;;;;;12.38;6.50;;;;;;;3.31;100.00;102439.06;5016353;28;20026;-89
2023/01/27 06:06:32;;;;;;;14.63;6.63;;;;;;;3.28;100.00;102447.38;5016356;28;20032;-89
2023/01/27 06:08:57;;;;;;;14.87;6.33;;;;;;;3.28;100.00;102443.84;5016840;28;20033;-89
2023/01/27 06:11:29;;;;;;;12.48;6.60;;;;;;;3.31;100.00;102451.63;5016639;28;20033;-89
2023/01/27 06:14:07;;;;;;;12.82;5.93;;;;;;;3.28;100.00;102452.75;5016350;28;20087;-89
2023/01/27 06:16:42;;;;;;;14.27;5.97;;;;;;;3.24;100.00;102453.97;5016920;28;20034;-89
2023/01/27 06:19:15;;;;;;;9.88;5.20;;;;;;;3.26;100.00;102440.44;5033974;28;20061;-89
2023/01/27 06:21:45;;;;;;;15.40;6.93;;;;;;;3.26;100.00;102443.09;5017023;28;20028;-89
2023/01/27 06:27:32;;;;;;;23.17;6.50;;;;;;;3.25;100.00;102465.53;5032089;28;20056;-86
2023/01/27 06:29:58;;;;;;;17.53;6.17;;;;;;;3.25;100.00;102463.72;5016624;28;20046;-87
2023/01/27 06:32:28;;;;;;;13.77;6.00;;;;;;;3.27;100.00;102461.75;5015856;28;20029;-92
2023/01/27 06:35:05;;;;;;;14.10;6.22;;;;;;;3.28;100.00;102462.63;5000645;28;20045;-92
2023/01/27 06:37:39;;;;;;;14.60;6.72;;;;;;;3.27;100.00;102458.22;5017423;28;20068;-92
2023/01/27 06:40:08;;;;;;;11.32;5.68;;;;;;;3.29;100.00;102461.63;5017773;28;20033;-92
2023/01/27 06:42:34;;;;;;;12.48;6.30;;;;;;;3.31;100.00;102457.00;5016535;28;20033;-92
2023/01/27 06:45:07;;;;;;;10.30;6.10;;;;;;;3.30;100.00;102453.44;5015662;28;20022;-87
2023/01/27 06:47:32;;;;;;;12.20;6.00;;;;;;;3.32;100.00;102467.59;5033732;28;20025;-86
2023/01/27 06:50:02;;;;;;;11.73;6.07;;;;;;;3.33;100.00;102460.41;5034268;28;20156;-89
2023/01/27 06:52:28;;;;;;;11.18;5.78;;;;;;;3.34;100.00;102464.78;5015738;28;20276;-90
2023/01/27 06:54:58;;;;;;;11.23;6.25;;;;;;;3.35;100.00;102463.78;5015823;28;20028;-87
2023/01/27 06:57:23;;;;;;;10.37;5.53;;;;;;;3.37;100.00;102464.53;5016528;28;20124;-87
2023/01/27 06:59:52;;;;;;;11.48;6.28;;;;;;;3.39;100.00;102472.47;5015777;28;20065;-87
2023/01/27 07:02:18;;;;;;;10.23;5.38;;;;;;;3.37;100.00;102469.91;5015732;28;20033;-86
2023/01/27 07:04:43;;;;;;;11.35;6.00;;;;;;;3.43;100.00;102471.22;5015541;28;20509;-87
2023/01/27 07:07:08;;;;;;;9.37;5.37;;;;;;;3.40;100.00;102469.66;5015424;28;20041;-86
2023/01/27 07:09:34;;;;;;;10.17;5.40;;;;;;;3.44;100.00;102475.59;5033857;28;20107;-86
2023/01/27 07:11:59;;;;;;;12.85;5.20;;;;;;;3.42;100.00;102469.50;5032984;28;20030;-86
2023/01/27 07:14:25;;;;;;;9.50;5.27;;;;;;;3.46;100.00;102471.81;5033348;28;20030;-82
2023/01/27 07:16:50;;;;;;;7.67;4.80;;;;;;;3.46;100.00;102471.81;5015432;28;20034;-86
2023/01/27 07:19:18;;;;;;;9.75;5.68;;;;;;;3.47;100.00;102478.88;5015427;28;20098;-86
2023/01/27 07:21:44;;;;;;;9.55;4.82;;;;;;;3.45;100.00;102470.09;5015580;28;20029;-84
2023/01/27 07:24:12;;;;;;;8.82;4.78;;;;;;;3.44;100.00;102472.91;5015697;28;20454;-86
2023/01/27 07:26:37;;;;;;;7.63;4.37;;;;;;;3.48;100.00;102475.22;5015708;28;20557;-86
2023/01/27 07:29:03;;;;;;;8.68;4.18;;;;;;;3.46;100.00;102481.69;5015413;28;20125;-86
2023/01/27 07:31:32;;;;;;;7.68;4.38;;;;;;;3.48;100.00;102479.72;5032529;28;20028;-86
2023/01/27 07:34:08;;;;;;;7.30;4.28;;;;;;;3.48;100.00;102480.59;5032773;28;20074;-86
2023/01/27 07:36:34;;;;;;;7.82;4.25;;;;;;;3.52;100.00;102486.53;5015162;28;20037;-85
2023/01/27 07:39:03;;;;;;;7.73;3.77;;;;;;;3.50;100.00;102478.63;5015280;28;20034;-88
2023/01/27 07:42:01;;;;;;;6.72;3.70;;;;;;;3.54;100.00;102487.25;5015255;28;20018;-86
2023/01/27 07:44:27;;;;;;;7.90;4.28;;;;;;;3.56;99.88;102489.81;5023166;28;20060;-86
2023/01/27 07:46:53;;;;;;;9.32;4.20;;;;;;;3.56;100.00;102493.38;5018753;28;20477;-86
2023/01/27 07:49:56;;;;;;;8.48;4.72;;;;;;;3.61;100.00;102491.13;5018865;28;20033;-86
2023/01/27 07:52:23;;;;;;;6.78;3.92;;;;;;;3.59;99.50;102493.09;5036385;28;20534;-87
2023/01/27 07:54:51;;;;;;;7.72;3.90;;;;;;;3.63;99.82;102499.94;5018315;28;20061;-86
2023/01/27 07:57:17;;;;;;;8.10;3.80;;;;;;;3.61;99.40;102501.88;5002462;28;20462;-87
2023/01/27 07:59:55;;;;;;;6.90;3.77;;;;;;;3.64;99.77;102500.78;5003135;28;20036;-87
2023/01/27 08:02:24;;;;;;;6.78;3.45;;;;;;;3.64;99.20;102498.94;5018730;28;20068;-86
2023/01/27 08:04:52;;;;;;;6.75;3.63;;;;;;;3.68;98.94;102504.91;5018267;28;20477;-86
2023/01/27 08:07:17;;;;;;;6.85;3.65;;;;;;;3.66;98.85;102502.34;5002297;28;20087;-85
2023/01/27 08:09:42;;;;;;;10.10;4.00;;;;;;;3.68;98.82;102497.69;5018502;28;20116;-86
2023/01/27 08:12:13;;;;;;;6.47;3.90;;;;;;;3.71;98.99;102501.97;5018662;28;20377;-87
2023/01/27 08:14:39;;;;;;;10.27;5.50;;;;;;;3.73;99.01;102507.19;5018239;28;20084;-86
2023/01/27 08:17:07;;;;;;;8.77;4.63;;;;;;;3.75;99.04;102510.59;5036072;28;20464;-86
2023/01/27 08:19:32;;;;;;;10.00;5.20;;;;;;;3.74;98.86;102498.19;5018229;28;20067;-86
2023/01/27 08:21:58;;;;;;;9.87;5.57;;;;;;;3.77;99.09;102500.59;5018097;28;20124;-86
2023/01/27 08:24:23;;;;;;;11.00;5.63;;;;;;;3.79;98.92;102501.31;5018591;28;20060;-86
2023/01/27 08:26:51;;;;;;;7.45;4.63;;;;;;;3.80;98.77;102505.69;5018019;28;20387;-85
2023/01/27 08:29:16;;;;;;;8.55;4.63;;;;;;;3.80;98.40;102508.38;5019110;28;20029;-85
2023/01/27 08:31:42;;;;;;;6.32;3.90;;;;;;;3.80;97.83;102513.75;5017802;28;20448;-86
2023/01/27 08:34:07;;;;;;;6.97;3.90;;;;;;;3.82;98.52;102520.72;5018199;28;20044;-85
2023/01/27 08:36:35;;;;;;;11.37;3.90;;;;;;;3.85;98.57;102508.84;5017856;28;20053;-85
2023/01/27 08:39:03;;;;;;;8.27;4.05;;;;;;;3.87;98.46;102520.31;5018669;28;20025;-86
2023/01/27 08:41:28;;;;;;;8.20;4.45;;;;;;;3.90;98.49;102528.09;5036036;28;20037;-86
2023/01/27 08:43:54;;;;;;;8.87;3.50;;;;;;;3.91;98.10;102521.72;5017961;28;20124;-86
2023/01/27 08:46:19;;;;;;;6.17;3.80;;;;;;;3.94;98.24;102524.19;5035122;28;20040;-86
2023/01/27 08:48:47;;;;;;;6.38;3.70;;;;;;;3.94;98.43;102516.13;5034215;28;20041;-86
2023/01/27 08:51:16;;;;;;;12.20;3.90;;;;;;;4.00;98.27;102529.03;5017789;28;20098;-86
2023/01/27 08:53:41;;;;;;;5.67;3.70;;;;;;;4.05;98.01;102536.69;5018179;28;20370;-87
2023/01/27 08:56:12;;;;;;;9.07;3.58;;;;;;;4.07;97.69;102534.72;5017640;28;20033;-85
2023/01/27 08:58:38;;;;;;;7.25;3.55;;;;;;;4.09;97.75;102537.28;5035350;28;20429;-85
2023/01/27 09:01:05;;;;;;;6.03;3.90;;;;;;;4.10;97.90;102538.97;5017675;28;20034;-86
2023/01/27 09:03:32;;;;;;;6.25;4.20;;;;;;;4.15;97.25;102547.47;5035186;28;20026;-86
2023/01/27 09:06:00;;;;;;;6.97;4.07;;;;;;;4.13;97.50;102554.84;5017702;28;20032;-86
2023/01/27 09:08:29;;;;;;;8.55;4.72;;;;;;;4.17;97.67;102558.97;5035091;28;20021;-86
2023/01/27 09:10:55;;;;;;;14.98;6.32;;;;;;;4.16;97.58;102555.44;5017695;28;20462;-86
2023/01/27 09:13:23;;;;;;;14.02;6.55;;;;;;;4.20;97.40;102559.53;5018246;28;20029;-86
2023/01/27 09:15:52;;;;;;;14.77;7.10;;;;;;;4.21;96.82;102561.25;5035001;28;20104;-86
2023/01/27 09:18:21;;;;;;;12.43;5.70;;;;;;;4.24;96.53;102552.09;5017045;28;20363;-85
2023/01/27 09:20:46;;;;;;;11.02;6.35;;;;;;;4.29;96.92;102563.28;5017700;28;20029;-85
2023/01/27 09:23:19;;;;;;;11.43;5.37;;;;;;;4.33;96.45;102556.66;5001010;28;20096;-86
2023/01/27 09:25:47;;;;;;;8.80;5.13;;;;;;;4.41;95.62;102555.16;5018106;28;20035;-86
2023/01/27 09:28:27;;;;;;;9.30;4.82;;;;;;;4.53;95.34;102557.63;5016773;28;20124;-86
2023/01/27 09:30:57;;;;;;;7.13;3.78;;;;;;;4.61;94.79;102550.75;5017056;28;20073;-79
2023/01/27 09:33:24;;;;;;;5.97;3.45;;;;;;;4.72;94.35;102562.25;5016994;28;20025;-85
2023/01/27 09:36:02;;;;;;;6.97;3.58;;;;;;;4.84;93.60;102557.63;5016798;28;20030;-86
2023/01/27 09:38:31;;;;;;;6.00;3.10;;;;;;;4.95;92.69;102566.59;5034633;28;20032;-84
2023/01/27 09:41:34;;;;;;;5.10;3.50;;;;;;;5.01;92.66;102572.25;5016733;28;20036;-85
2023/01/27 09:44:57;;;;;;;4.82;3.25;;;;;;;5.03;92.60;102569.44;5032918;28;20034;-85
2023/01/27 09:47:37;;;;;;;8.07;3.50;;;;;;;4.99;91.62;102570.69;4938349;29;20032;-84
2023/01/27 09:50:34;;;;;;;5.82;3.20;;;;;;;5.02;92.49;102573.09;4954442;29;20039;-85
2023/01/27 09:53:34;;;;;;;6.13;3.10;;;;;;;4.99;92.12;102568.88;5026545;28;20478;-84
2023/01/27 09:55:59;;;;;;;5.68;2.97;;;;;;;5.01;91.25;102583.03;5034215;28;20030;-84
2023/01/27 09:58:25;;;;;;;4.03;3.07;;;;;;;5.05;90.61;102573.69;5016332;28;20035;-85
2023/01/27 10:01:17;;;;;;;3.93;2.97;;;;;;;5.05;90.77;102581.78;5034135;28;20099;-85
2023/01/27 10:03:57;;;;;;;3.50;2.58;;;;;;;5.06;90.70;102578.09;5016631;28;20053;-85
2023/01/27 10:06:55;;;;;;;6.35;2.60;;;;;;;5.13;90.29;102585.63;5033341;28;20491;-85
2023/01/27 10:09:34;;;;;;;3.67;2.45;;;;;;;5.17;90.33;102584.38;5016143;28;20047;-85
2023/01/27 10:12:19;;;;;;;3.43;2.50;;;;;;;5.18;89.62;102580.66;5016317;28;20043;-85
2023/01/27 10:15:33;;;;;;;3.17;2.38;;;;;;;5.15;89.80;102592.53;5017000;28;20212;-85
2023/01/27 10:18:14;;;;;;;4.93;2.40;;;;;;;5.13;89.13;102586.47;4937637;29;20122;-85
2023/01/27 10:21:34;;;;;;;4.45;2.63;;;;;;;5.22;89.51;102587.47;5024114;28;20048;-85
2023/01/27 10:24:25;;;;;;;4.05;2.63;;;;;;;5.29;88.46;102582.41;4979688;28;20096;-85
2023/01/27 10:26:55;;;;;;;3.77;2.50;;;;;;;5.47;88.01;102588.81;5016374;28;20057;-85
2023/01/27 10:29:30;;;;;;;4.28;2.63;;;;;;;5.58;86.71;102574.38;5033891;28;20048;-85
2023/01/27 10:32:00;;;;;;;4.32;2.90;;;;;;;5.76;86.32;102570.00;5015935;28;20030;-85
2023/01/27 10:34:30;;;;;;;4.18;2.60;;;;;;;5.87;85.24;102568.16;5034001;28;20116;-84
2023/01/27 10:37:53;;;;;;;3.42;2.35;;;;;;;5.96;86.27;102573.56;5015884;28;20034;-85
2023/01/27 10:41:11;;;;;;;4.77;2.87;;;;;;;6.01;85.81;102559.69;4986571;28;20044;-85
2023/01/27 10:44:03;;;;;;;3.42;2.72;;;;;;;5.99;85.39;102564.34;4972530;28;20044;-89
2023/01/27 10:47:13;;;;;;;4.50;2.53;;;;;;;6.02;85.09;102568.59;5016106;28;20053;-86
2023/01/27 10:49:45;;;;;;;4.57;2.65;;;;;;;5.90;83.87;102571.41;4979750;28;20065;-86
2023/01/27 10:52:18;;;;;;;3.63;2.65;;;;;;;5.93;83.95;102573.81;5034031;28;20030;-86
2023/01/27 10:55:02;;;;;;;4.10;3.10;;;;;;;5.88;84.43;102570.72;5015965;28;20057;-86
2023/01/27 10:57:40;;;;;;;4.72;3.00;;;;;;;5.93;84.88;102571.13;5015530;28;20485;-85
2023/01/27 11:00:14;;;;;;;3.83;2.60;;;;;;;5.99;83.83;102566.19;5015738;28;20071;-91
2023/01/27 11:03:16;;;;;;;4.40;2.60;;;;;;;5.97;84.14;102559.09;5016318;28;20025;-86
2023/01/27 11:05:48;;;;;;;4.95;3.10;;;;;;;5.97;84.67;102560.94;5015992;28;20052;-85
2023/01/27 11:08:27;;;;;;;5.63;2.90;;;;;;;6.00;84.79;102554.44;5015735;28;20037;-85
2023/01/27 11:14:02;;;;;;;4.88;2.35;;;;;;;6.04;83.65;102562.09;5033796;28;20099;-85
2023/01/27 11:16:33;;;;;;;3.97;2.55;;;;;;;5.94;83.67;102556.66;5015797;28;20079;-86
2023/01/27 11:19:10;;;;;;;3.55;2.50;;;;;;;5.87;84.25;102566.31;5019707;28;20131;-86
2023/01/27 11:21:36;;;;;;;4.33;2.13;;;;;;;5.81;83.71;102558.78;5037458;28;20044;-86
2023/01/27 11:24:32;;;;;;;4.32;2.25;;;;;;;5.76;84.58;102564.63;5019886;28;20495;-85
2023/01/27 11:27:06;;;;;;;5.38;2.50;;;;;;;5.61;84.22;102557.97;5037122;28;20049;-86
2023/01/27 11:29:41;;;;;;;4.15;2.28;;;;;;;5.59;85.52;102560.75;5019909;28;20029;-85
2023/01/27 11:32:34;;;;;;;3.92;2.50;;;;;;;5.56;84.97;102563.72;5019773;28;20026;-85
2023/01/27 11:35:10;;;;;;;3.83;2.20;;;;;;;5.45;84.93;102570.09;5037562;28;20036;-85
2023/01/27 11:37:39;;;;;;;3.30;2.30;;;;;;;5.45;84.55;102562.03;5019279;28;20040;-84
2023/01/27 11:40:23;;;;;;;5.18;2.80;;;;;;;5.39;86.21;102565.28;5037027;28;20025;-84
2023/01/27 11:42:49;;;;;;;5.85;2.35;;;;;;;5.40;85.85;102561.63;5018838;28;20033;-85
2023/01/27 11:45:17;;;;;;;3.90;2.63;;;;;;;5.47;85.64;102561.88;5019524;28;20038;-84
2023/01/27 11:47:49;;;;;;;4.45;2.63;;;;;;;5.58;85.66;102558.22;5037143;28;20080;-86
2023/01/27 11:50:19;;;;;;;4.35;2.88;;;;;;;5.73;84.96;102555.97;5019111;28;20022;-86
2023/01/27 11:52:48;;;;;;;5.22;2.70;;;;;;;5.90;83.99;102549.84;5019294;28;20037;-86
2023/01/27 11:55:33;;;;;;;3.65;2.50;;;;;;;6.11;84.09;102551.56;5019901;28;20036;-88
2023/01/27 11:58:19;;;;;;;3.93;2.30;;;;;;;6.40;83.81;102559.59;5019082;28;20123;-88
2023/01/27 12:00:58;;;;;;;3.85;2.72;;;;;;;6.57;83.12;102538.25;5019105;28;20076;-87
2023/01/27 12:03:32;;;;;;;7.13;3.20;;;;;;;6.71;81.27;102550.44;5019332;28;20462;-88
2023/01/27 12:06:10;;;;;;;3.50;2.58;;;;;;;6.72;81.75;102541.31;5019270;28;20500;-87
2023/01/27 12:08:48;;;;;;;4.55;3.03;;;;;;;6.69;80.76;102555.97;5037595;28;20033;-88
2023/01/27 12:11:24;;;;;;;5.17;3.00;;;;;;;6.56;80.55;102547.38;5036522;28;20036;-86
2023/01/27 12:14:01;;;;;;;3.92;2.65;;;;;;;6.44;81.48;102541.31;5036583;28;20127;-86
2023/01/27 12:16:49;;;;;;;5.70;2.80;;;;;;;6.42;82.46;102541.44;5019294;28;20029;-87
2023/01/27 12:19:33;;;;;;;3.95;2.90;;;;;;;6.34;82.40;102548.56;5036374;28;20610;-87
2023/01/27 12:22:01;;;;;;;5.53;2.80;;;;;;;6.24;81.75;102551.28;5018467;28;20033;-87
2023/01/27 12:24:30;;;;;;;4.83;2.73;;;;;;;6.12;81.85;102535.25;5034841;28;20480;-86
2023/01/27 12:26:57;;;;;;;4.90;2.75;;;;;;;6.21;81.63;102543.47;5035923;28;20095;-86
2023/01/27 12:29:50;;;;;;;3.88;2.63;;;;;;;6.22;82.70;102531.72;5035449;28;20448;-86
2023/01/27 12:32:33;;;;;;;7.18;3.63;;;;;;;6.03;82.10;102527.19;5036427;28;20038;-86
2023/01/27 12:35:00;;;;;;;4.90;2.58;;;;;;;5.92;82.16;102536.22;5019182;28;20080;-86
2023/01/27 12:37:31;;;;;;;4.03;2.53;;;;;;;5.87;81.70;102533.97;5017931;28;20087;-86
2023/01/27 12:40:11;;;;;;;3.80;2.63;;;;;;;5.77;82.69;102525.03;5036537;28;20041;-86
2023/01/27 12:42:47;;;;;;;4.13;2.53;;;;;;;5.77;83.26;102542.09;5017908;28;20086;-86
2023/01/27 12:45:23;;;;;;;4.07;2.70;;;;;;;5.80;83.76;102530.16;5018412;28;20107;-87
2023/01/27 12:48:08;;;;;;;4.97;2.80;;;;;;;5.76;83.41;102521.50;5018161;28;20041;-87
2023/01/27 12:50:37;;;;;;;4.23;2.60;;;;;;;5.75;83.63;102519.81;5035717;28;20032;-86
2023/01/27 12:53:05;;;;;;;4.10;2.75;;;;;;;5.82;83.26;102522.78;5018839;28;20037;-86
2023/01/27 12:55:38;;;;;;;4.13;3.13;;;;;;;5.94;83.56;102515.41;5018254;28;20075;-86
2023/01/27 12:58:04;;;;;;;4.07;2.67;;;;;;;6.04;82.16;102510.88;5017671;28;20060;-85
2023/01/27 13:00:30;;;;;;;4.47;2.95;;;;;;;6.02;82.01;102507.47;5017711;28;20053;-86
2023/01/27 13:03:10;;;;;;;4.22;3.10;;;;;;;6.02;81.72;102510.16;5017675;28;20040;-86
2023/01/27 13:05:38;;;;;;;3.45;2.55;;;;;;;5.96;81.25;102514.28;5035561;28;20094;-85
2023/01/27 13:08:05;;;;;;;3.55;2.60;;;;;;;5.89;81.26;102510.44;5018154;28;20088;-85
2023/01/27 13:10:34;;;;;;;3.90;3.10;;;;;;;5.90;81.43;102514.81;5017399;28;20394;-85
2023/01/27 13:13:00;;;;;;;4.00;2.78;;;;;;;5.98;81.71;102514.16;5017659;28;20120;-86
2023/01/27 13:15:29;;;;;;;3.78;2.90;;;;;;;6.02;80.91;102520.94;5017841;28;20124;-85
2023/01/27 13:17:56;;;;;;;4.22;2.85;;;;;;;6.06;80.82;102518.81;5017284;28;20046;-86
2023/01/27 13:20:25;;;;;;;4.97;3.00;;;;;;;6.06;80.70;102514.28;5001389;28;20042;-85
2023/01/27 13:23:05;;;;;;;4.35;2.90;;;;;;;6.09;80.22;102500.50;5017551;28;20065;-85
2023/01/27 13:25:58;;;;;;;4.45;2.60;;;;;;;6.25;80.96;102510.69;5034993;28;20091;-85
2023/01/27 13:28:33;;;;;;;4.22;2.88;;;;;;;6.15;79.39;102502.63;5016966;28;20050;-85